M/T Pazar — TCMC — position and weather

sailwx.info

Track history (hours):
 
Tides and Currents Weather Stations Pressure Air Temp Water Temp Dewpoint Dewpoint Depression Visibility Wind Speed Wind Dir Waves Ship Positions

M/T Pazar

Last reported at 2018-Apr-24 18:48 UTC. Time now 2018-Apr-25 06:52 UTC.
Position N 33°28' E 034°26'.

Length 85 m; draft 5.5 m.

Type: Tanker. MMSI: 271000251.

Date/timePositionNaut miles runAvg speedWind from/ knotsBaromVisibWave heightAir tempDewpointWater temp
2018-Apr-24 18:48N 33°28' E 034°26'910.6
2018-Apr-24 17:55N 33°34' E 034°35'510.8
2018-Apr-24 17:29N 33°37' E 034°40'3811.1
2018-Apr-24 14:06N 33°55' E 035°19'211.2
2018-Apr-24 13:56N 33°55' E 035°21'  
2018-Apr-19 15:44N 34°15' E 033°34'910.4
2018-Apr-19 14:53N 34°18' E 033°24'3810.5
2018-Apr-19 11:15N 34°27' E 032°39'410.0
2018-Apr-19 10:52N 34°28' E 032°35'76 9.7
2018-Apr-19 03:03N 35°08' E 031°15'0 9.8
2018-Apr-19 03:00N 35°08' E 031°15'610.1
2018-Apr-19 02:23N 35°11' E 031°08'2410.1
2018-Apr-18 23:58N 35°25' E 030°43'510.3
2018-Apr-18 23:30N 35°27' E 030°39'  
Track history (hours):
 
Tides and Currents Weather Stations Pressure Air Temp Water Temp Dewpoint Dewpoint Depression Visibility Wind Speed Wind Dir Waves Ship Positions

M/T Pazar

Last reported at 2018-Apr-24 18:48 UTC. Time now 2018-Apr-25 06:52 UTC.
Position N 33°28' E 034°26'.

Length 85 m; draft 5.5 m.

Type: Tanker. MMSI: 271000251.

Date/timePositionNaut miles runAvg speedWind from/ knotsBaromVisibWave heightAir tempDewpointWater temp
2018-Apr-24 18:48N 33°28' E 034°26'910.6
2018-Apr-24 17:55N 33°34' E 034°35'510.8
2018-Apr-24 17:29N 33°37' E 034°40'3811.1
2018-Apr-24 14:06N 33°55' E 035°19'211.2
2018-Apr-24 13:56N 33°55' E 035°21'  
2018-Apr-19 15:44N 34°15' E 033°34'910.4
2018-Apr-19 14:53N 34°18' E 033°24'3810.5
2018-Apr-19 11:15N 34°27' E 032°39'410.0
2018-Apr-19 10:52N 34°28' E 032°35'76 9.7
2018-Apr-19 03:03N 35°08' E 031°15'0 9.8
2018-Apr-19 03:00N 35°08' E 031°15'610.1
2018-Apr-19 02:23N 35°11' E 031°08'2410.1
2018-Apr-18 23:58N 35°25' E 030°43'510.3
2018-Apr-18 23:30N 35°27' E 030°39'  

Dump ship's entire track history